Time;durP1;ratioP1;P1;durP2;ratioP2;P2;SDS_P1;SDS_P2;PMS_P1;PMS_P2;Temp;Humidity;BMP_temperature;BMP_pressure;BME280_temperature;BME280_humidity;BME280_pressure;Samples;Min_cycle;Max_cycle;Signal;HPM_P1;HPM_P2
2022/06/06 00:02:03;;;;;;;10.33;9.20;;;;;;;;;;5004226;28;20474;-84
2022/06/06 00:04:29;;;;;;;10.80;9.80;;;;;;;;;;5004327;28;20477;-84
2022/06/06 00:06:57;;;;;;;9.07;8.37;;;;;;;;;;5004707;28;20482;-84
2022/06/06 00:09:23;;;;;;;9.97;9.17;;;;;;;;;;5004826;28;20435;-84
2022/06/06 00:11:49;;;;;;;9.80;8.80;;;;;;;;;;5005276;28;20469;-85
2022/06/06 00:14:17;;;;;;;9.73;8.93;;;;;;;;;;5002795;28;20446;-84
2022/06/06 00:16:44;;;;;;;9.87;8.87;;;;;;;;;;5010719;28;20470;-83
2022/06/06 00:19:11;;;;;;;10.67;9.57;;;;;;;;;;5006477;28;20804;-84
2022/06/06 00:21:38;;;;;;;10.90;9.90;;;;;;;;;;5009259;28;20485;-83
2022/06/06 00:24:05;;;;;;;9.60;8.73;;;;;;;;;;5007852;28;20861;-84
2022/06/06 00:26:33;;;;;;;10.07;9.07;;;;;;;;;;5006928;28;20478;-84
2022/06/06 00:28:59;;;;;;;9.50;8.70;;;;;;;;;;5006553;28;20454;-83
2022/06/06 00:36:58;;;;;;;11.80;10.63;;;;;;;;;;5007430;28;20543;-85
2022/06/06 00:39:24;;;;;;;12.13;10.97;;;;;;;;;;5005663;28;20695;-84
2022/06/06 00:41:52;;;;;;;10.40;9.40;;;;;;;;;;5009499;28;20477;-83
2022/06/06 00:44:21;;;;;;;11.27;10.27;;;;;;;;;;5007147;28;20831;-83
2022/06/06 00:46:48;;;;;;;12.53;11.30;;;;;;;;;;5006620;28;20522;-87
2022/06/06 00:49:22;;;;;;;12.33;11.10;;;;;;;;;;5006565;28;20461;-83
2022/06/06 00:51:49;;;;;;;11.40;10.33;;;;;;;;;;5006802;28;20452;-83
2022/06/06 00:54:15;;;;;;;13.90;11.90;;;;;;;;;;5006920;28;20810;-84
2022/06/06 00:56:45;;;;;;;12.73;11.53;;;;;;;;;;5007421;28;20453;-83
2022/06/06 00:59:14;;;;;;;13.60;11.67;;;;;;;;;;5008088;28;20943;-84
2022/06/06 01:01:41;;;;;;;11.77;10.57;;;;;;;;;;5005272;28;20450;-85
2022/06/06 01:04:09;;;;;;;10.70;9.43;;;;;;;;;;5006937;28;20985;-84
2022/06/06 01:06:38;;;;;;;10.50;9.60;;;;;;;;;;5009568;28;20441;-83
2022/06/06 01:09:05;;;;;;;9.47;8.50;;;;;;;;;;5008221;28;20528;-86
2022/06/06 01:11:34;;;;;;;7.97;7.23;;;;;;;;;;5005693;28;20454;-85
2022/06/06 01:14:01;;;;;;;7.50;6.80;;;;;;;;;;5003328;28;20821;-82
2022/06/06 01:16:35;;;;;;;6.87;6.17;;;;;;;;;;5008999;28;20486;-83
2022/06/06 01:19:13;;;;;;;4.80;4.40;;;;;;;;;;5003531;28;20813;-83
2022/06/06 01:21:54;;;;;;;4.40;4.00;;;;;;;;;;5003991;28;20454;-84
2022/06/06 01:24:34;;;;;;;5.17;4.00;;;;;;;;;;5005476;28;20469;-84
2022/06/06 01:27:11;;;;;;;4.37;4.07;;;;;;;;;;5002932;28;20469;-84
2022/06/06 01:29:42;;;;;;;4.13;3.80;;;;;;;;;;5005372;28;20443;-84
2022/06/06 01:32:09;;;;;;;2.83;2.63;;;;;;;;;;5007077;28;20462;-89
2022/06/06 01:34:37;;;;;;;2.80;2.47;;;;;;;;;;5008868;28;20420;-84
2022/06/06 01:37:04;;;;;;;2.83;2.63;;;;;;;;;;5006682;28;20453;-84
2022/06/06 01:39:32;;;;;;;4.30;2.43;;;;;;;;;;5004437;28;20444;-86
2022/06/06 01:42:03;;;;;;;3.10;2.90;;;;;;;;;;5000680;28;20443;-83
2022/06/06 01:44:34;;;;;;;2.63;2.43;;;;;;;;;;5006227;28;20480;-85
2022/06/06 01:47:03;;;;;;;4.50;3.00;;;;;;;;;;5009038;28;20993;-89
2022/06/06 01:49:30;;;;;;;1.93;1.83;;;;;;;;;;5007741;28;20529;-86
2022/06/06 01:52:01;;;;;;;2.40;2.20;;;;;;;;;;5003027;28;20444;-85
2022/06/06 01:54:27;;;;;;;2.80;2.60;;;;;;;;;;5010066;28;20460;-85
2022/06/06 01:56:54;;;;;;;2.40;2.23;;;;;;;;;;5009648;28;20961;-85
2022/06/06 01:59:20;;;;;;;3.70;2.63;;;;;;;;;;5009502;28;20425;-86
2022/06/06 02:01:47;;;;;;;3.33;2.90;;;;;;;;;;5013663;28;20519;-86
2022/06/06 02:04:15;;;;;;;2.80;2.63;;;;;;;;;;5010025;28;20496;-85
2022/06/06 02:06:41;;;;;;;3.03;2.83;;;;;;;;;;5010284;28;20448;-86
2022/06/06 02:09:09;;;;;;;3.27;2.97;;;;;;;;;;5010657;28;20513;-85
2022/06/06 02:11:35;;;;;;;3.07;2.87;;;;;;;;;;5009530;28;20444;-87
2022/06/06 02:14:01;;;;;;;2.27;2.17;;;;;;;;;;5012279;28;20977;-86
2022/06/06 02:16:28;;;;;;;2.50;2.30;;;;;;;;;;5008698;28;20440;-86
2022/06/06 02:18:55;;;;;;;2.50;2.30;;;;;;;;;;5015958;28;20454;-85
2022/06/06 02:21:23;;;;;;;2.80;2.50;;;;;;;;;;5008814;28;21015;-85
2022/06/06 02:23:49;;;;;;;2.40;2.30;;;;;;;;;;5015537;28;20466;-87
2022/06/06 02:26:16;;;;;;;2.00;1.90;;;;;;;;;;5010803;28;20432;-85
2022/06/06 02:28:42;;;;;;;2.70;2.17;;;;;;;;;;5020929;28;20488;-84
2022/06/06 02:31:09;;;;;;;2.20;2.10;;;;;;;;;;5009648;28;20436;-84
2022/06/06 02:33:36;;;;;;;3.20;2.50;;;;;;;;;;5009509;28;20428;-82
2022/06/06 02:36:03;;;;;;;3.27;3.07;;;;;;;;;;5005243;28;20452;-84
2022/06/06 02:38:32;;;;;;;3.47;3.17;;;;;;;;;;5007382;28;20493;-85
2022/06/06 02:41:07;;;;;;;3.00;2.70;;;;;;;;;;5009460;28;20540;-83
2022/06/06 02:43:34;;;;;;;3.10;2.80;;;;;;;;;;5005225;28;20431;-84
2022/06/06 02:46:01;;;;;;;4.63;3.27;;;;;;;;;;5013088;28;20462;-84
2022/06/06 02:48:28;;;;;;;4.50;2.77;;;;;;;;;;5002930;28;20440;-85
2022/06/06 02:50:54;;;;;;;3.63;3.33;;;;;;;;;;5006729;28;20452;-84
2022/06/06 02:53:21;;;;;;;3.83;3.53;;;;;;;;;;5006681;28;20525;-84
2022/06/06 02:55:50;;;;;;;3.80;3.50;;;;;;;;;;5007943;28;20486;-88
2022/06/06 02:58:17;;;;;;;3.77;3.23;;;;;;;;;;5003291;28;20999;-85
2022/06/06 03:00:44;;;;;;;4.53;4.13;;;;;;;;;;5003703;28;20760;-84
2022/06/06 03:03:10;;;;;;;4.47;4.03;;;;;;;;;;5006099;28;20470;-84
2022/06/06 03:05:42;;;;;;;4.93;3.90;;;;;;;;;;5006801;28;20767;-84
2022/06/06 03:08:13;;;;;;;5.73;5.20;;;;;;;;;;5009132;28;20453;-84
2022/06/06 03:10:46;;;;;;;5.70;5.20;;;;;;;;;;5008410;28;20420;-84
2022/06/06 03:13:24;;;;;;;5.37;4.87;;;;;;;;;;5009347;28;21015;-88
2022/06/06 03:21:33;;;;;;;7.17;6.47;;;;;;;;;;5011186;28;20514;-84
2022/06/06 03:24:08;;;;;;;7.07;6.27;;;;;;;;;;5010294;28;20469;-85
2022/06/06 03:26:41;;;;;;;8.30;7.50;;;;;;;;;;5008928;28;20882;-87
2022/06/06 03:29:17;;;;;;;8.37;7.33;;;;;;;;;;5010872;28;20461;-86
2022/06/06 03:31:46;;;;;;;8.70;7.90;;;;;;;;;;5012714;28;20467;-84
2022/06/06 03:34:17;;;;;;;8.03;7.23;;;;;;;;;;5007461;28;20524;-84
2022/06/06 03:36:47;;;;;;;10.27;9.30;;;;;;;;;;5023022;22;20574;-86
2022/06/06 03:39:16;;;;;;;10.27;9.30;;;;;;;;;;5004587;28;21126;-85
2022/06/06 03:41:46;;;;;;;8.50;7.60;;;;;;;;;;4995041;28;20444;-89
2022/06/06 03:44:18;;;;;;;10.37;9.13;;;;;;;;;;5000868;28;20444;-85
2022/06/06 03:46:48;;;;;;;13.83;9.80;;;;;;;;;;4999933;28;20444;-85
2022/06/06 03:49:17;;;;;;;13.80;10.50;;;;;;;;;;4997248;28;20440;-86
2022/06/06 03:51:50;;;;;;;10.53;9.53;;;;;;;;;;4993064;28;20751;-89
2022/06/06 03:54:21;;;;;;;14.90;11.13;;;;;;;;;;5001029;28;20470;-88
2022/06/06 03:56:57;;;;;;;12.07;10.20;;;;;;;;;;4998544;28;20450;-89
2022/06/06 03:59:28;;;;;;;15.60;11.97;;;;;;;;;;4996824;28;20477;-86
2022/06/06 04:01:56;;;;;;;17.27;12.93;;;;;;;;;;4993656;28;20822;-85
2022/06/06 04:04:23;;;;;;;17.70;13.63;;;;;;;;;;4995441;28;20428;-86
2022/06/06 04:06:50;;;;;;;19.87;14.30;;;;;;;;;;4992092;28;20457;-85
2022/06/06 04:09:16;;;;;;;18.57;13.37;;;;;;;;;;4993829;28;20463;-84
2022/06/06 04:11:48;;;;;;;17.70;13.63;;;;;;;;;;4996497;28;20793;-86
2022/06/06 04:14:23;;;;;;;22.33;16.73;;;;;;;;;;5002265;28;20432;-86
2022/06/06 04:16:54;;;;;;;22.37;15.93;;;;;;;;;;4992482;28;20477;-86
2022/06/06 04:19:27;;;;;;;23.07;17.93;;;;;;;;;;4997064;28;20953;-86
2022/06/06 04:22:00;;;;;;;23.17;17.03;;;;;;;;;;4997888;28;20437;-87
2022/06/06 04:24:36;;;;;;;27.83;17.93;;;;;;;;;;4997350;28;20451;-86
2022/06/06 04:27:05;;;;;;;32.63;21.73;;;;;;;;;;4999861;28;20469;-85
2022/06/06 04:29:35;;;;;;;34.43;22.50;;;;;;;;;;5000003;28;20469;-87
2022/06/06 04:32:06;;;;;;;31.80;20.70;;;;;;;;;;5000229;28;20475;-87
2022/06/06 04:34:37;;;;;;;33.63;21.20;;;;;;;;;;4994023;28;20478;-86
2022/06/06 04:37:06;;;;;;;28.30;18.77;;;;;;;;;;4992736;28;20482;-86
2022/06/06 04:39:37;;;;;;;26.77;18.10;;;;;;;;;;4999984;28;20497;-87
2022/06/06 04:42:06;;;;;;;28.97;19.80;;;;;;;;;;4996312;28;20441;-86
2022/06/06 04:44:37;;;;;;;28.97;18.93;;;;;;;;;;4992034;28;20462;-85
2022/06/06 04:47:08;;;;;;;27.00;18.87;;;;;;;;;;4999217;28;21063;-85
2022/06/06 04:49:35;;;;;;;30.90;18.20;;;;;;;;;;5006295;28;20473;-86
2022/06/06 04:52:02;;;;;;;27.10;17.00;;;;;;;;;;4997425;28;20995;-87
2022/06/06 04:54:30;;;;;;;25.77;17.30;;;;;;;;;;5003901;28;20442;-87
2022/06/06 04:56:59;;;;;;;27.23;18.27;;;;;;;;;;5000219;28;20456;-85
2022/06/06 04:59:25;;;;;;;27.53;18.07;;;;;;;;;;4992953;28;20466;-86
2022/06/06 05:01:52;;;;;;;25.07;16.90;;;;;;;;;;5003266;28;20490;-86
2022/06/06 05:04:19;;;;;;;33.83;19.97;;;;;;;;;;5003667;28;20437;-86
2022/06/06 05:06:59;;;;;;;28.47;18.03;;;;;;;;;;5000309;28;20845;-86
2022/06/06 05:09:38;;;;;;;32.50;20.23;;;;;;;;;;5003965;28;20809;-85
2022/06/06 05:12:11;;;;;;;31.90;19.90;;;;;;;;;;4995917;28;20449;-89
2022/06/06 05:14:48;;;;;;;29.70;18.87;;;;;;;;;;4997392;28;20428;-87
2022/06/06 05:17:26;;;;;;;29.83;18.93;;;;;;;;;;4996074;28;20497;-87
2022/06/06 05:20:02;;;;;;;30.37;19.87;;;;;;;;;;4999317;28;20525;-86
2022/06/06 05:22:43;;;;;;;32.10;19.20;;;;;;;;;;5002724;28;20542;-90
2022/06/06 05:25:16;;;;;;;28.53;17.80;;;;;;;;;;5003987;28;20796;-86
2022/06/06 05:27:52;;;;;;;25.13;17.73;;;;;;;;;;4999489;28;20478;-86
2022/06/06 05:30:19;;;;;;;30.27;18.43;;;;;;;;;;5005220;28;20965;-86
2022/06/06 05:32:52;;;;;;;28.10;18.13;;;;;;;;;;5001181;28;20485;-87
2022/06/06 05:35:26;;;;;;;35.40;20.10;;;;;;;;;;4999976;28;20464;-85
2022/06/06 05:37:57;;;;;;;31.90;20.50;;;;;;;;;;4997012;28;20444;-85
2022/06/06 05:40:29;;;;;;;34.73;21.20;;;;;;;;;;5001997;28;20425;-84
2022/06/06 05:43:01;;;;;;;32.03;20.50;;;;;;;;;;5000304;28;20463;-88
2022/06/06 05:45:33;;;;;;;28.53;18.03;;;;;;;;;;4997171;28;20447;-85
2022/06/06 05:48:07;;;;;;;31.90;19.40;;;;;;;;;;5001020;28;21020;-86
2022/06/06 05:50:39;;;;;;;26.10;16.93;;;;;;;;;;5005265;28;20457;-86
2022/06/06 05:53:16;;;;;;;29.60;16.60;;;;;;;;;;4999980;28;20445;-86
2022/06/06 05:55:50;;;;;;;31.30;18.67;;;;;;;;;;5000080;28;20495;-89
2022/06/06 05:58:31;;;;;;;30.07;18.10;;;;;;;;;;5002569;28;20455;-85
2022/06/06 06:01:06;;;;;;;25.20;15.93;;;;;;;;;;5000994;28;20455;-86
2022/06/06 06:03:47;;;;;;;26.10;16.70;;;;;;;;;;4999092;28;20848;-86
2022/06/06 06:06:18;;;;;;;30.20;18.30;;;;;;;;;;4981018;28;20446;-86
2022/06/06 06:08:51;;;;;;;27.83;17.83;;;;;;;;;;4994901;28;20464;-86
2022/06/06 06:11:25;;;;;;;30.93;19.03;;;;;;;;;;4998471;28;20486;-85
2022/06/06 06:14:02;;;;;;;29.80;16.60;;;;;;;;;;5002511;28;20431;-85
2022/06/06 06:16:31;;;;;;;28.63;16.70;;;;;;;;;;5001366;28;20527;-86
2022/06/06 06:19:03;;;;;;;27.30;17.63;;;;;;;;;;5002384;28;20470;-86
2022/06/06 06:21:31;;;;;;;27.10;18.70;;;;;;;;;;5003355;28;20874;-88
2022/06/06 06:23:59;;;;;;;27.53;18.00;;;;;;;;;;5004273;28;20459;-85
2022/06/06 06:26:27;;;;;;;26.50;16.70;;;;;;;;;;5000220;28;20428;-87
2022/06/06 06:28:54;;;;;;;31.20;17.90;;;;;;;;;;4996469;28;20449;-86
2022/06/06 06:31:27;;;;;;;26.53;15.80;;;;;;;;;;5006200;28;20451;-88
2022/06/06 06:34:01;;;;;;;24.83;16.53;;;;;;;;;;4995455;28;20460;-85
2022/06/06 06:36:33;;;;;;;23.73;16.00;;;;;;;;;;4997311;28;20489;-86
2022/06/06 06:39:10;;;;;;;23.27;16.87;;;;;;;;;;4998810;28;20447;-84
2022/06/06 06:41:41;;;;;;;29.30;16.60;;;;;;;;;;4997085;28;20473;-85
2022/06/06 06:44:08;;;;;;;25.60;13.90;;;;;;;;;;5001863;28;20428;-89
2022/06/06 06:46:39;;;;;;;23.20;15.30;;;;;;;;;;5003585;28;20448;-86
2022/06/06 06:49:11;;;;;;;25.07;15.30;;;;;;;;;;4994479;28;20448;-88
2022/06/06 06:51:42;;;;;;;21.60;14.70;;;;;;;;;;4999464;28;20889;-85
2022/06/06 06:54:25;;;;;;;21.70;14.60;;;;;;;;;;4997088;28;20516;-90
2022/06/06 06:57:01;;;;;;;24.80;14.40;;;;;;;;;;5000835;28;20481;-91
2022/06/06 06:59:31;;;;;;;24.23;13.80;;;;;;;;;;4992510;28;20766;-86
2022/06/06 07:10:28;;;;;;;19.47;13.17;;;;;;;;;;4999969;28;20786;-87
2022/06/06 07:13:04;;;;;;;17.37;11.37;;;;;;;;;;4996340;28;20442;-89
2022/06/06 07:15:37;;;;;;;18.30;13.10;;;;;;;;;;4994880;28;20414;-89
2022/06/06 07:18:06;;;;;;;15.63;11.73;;;;;;;;;;5000376;28;20449;-88
2022/06/06 07:20:35;;;;;;;14.33;11.30;;;;;;;;;;4998491;28;20437;-85
2022/06/06 07:23:04;;;;;;;16.03;10.80;;;;;;;;;;5003480;28;20473;-87
2022/06/06 07:25:33;;;;;;;17.07;11.27;;;;;;;;;;4999081;28;20472;-86
2022/06/06 07:28:00;;;;;;;16.93;10.97;;;;;;;;;;4996388;28;20445;-86
2022/06/06 07:30:29;;;;;;;15.90;11.10;;;;;;;;;;5000673;28;20413;-87
2022/06/06 07:33:00;;;;;;;15.27;10.10;;;;;;;;;;4996126;28;20474;-86
2022/06/06 07:35:34;;;;;;;16.23;10.83;;;;;;;;;;4998102;28;20892;-87
2022/06/06 07:38:06;;;;;;;13.83;10.60;;;;;;;;;;4998292;28;20545;-86
2022/06/06 07:40:39;;;;;;;14.83;9.97;;;;;;;;;;5000594;28;20454;-87
2022/06/06 07:43:10;;;;;;;15.20;10.93;;;;;;;;;;5003682;28;20477;-86
2022/06/06 07:45:40;;;;;;;11.10;8.20;;;;;;;;;;5000589;28;20472;-85
2022/06/06 07:48:22;;;;;;;15.20;10.00;;;;;;;;;;4997049;28;20485;-86
2022/06/06 07:50:53;;;;;;;12.53;8.60;;;;;;;;;;5001611;28;20420;-89
2022/06/06 07:53:24;;;;;;;10.30;8.17;;;;;;;;;;5002334;28;20445;-88
2022/06/06 07:55:55;;;;;;;14.47;9.10;;;;;;;;;;4997213;28;20447;-86
2022/06/06 07:58:27;;;;;;;13.70;8.77;;;;;;;;;;4997178;28;21002;-88
2022/06/06 08:00:57;;;;;;;17.33;8.00;;;;;;;;;;5001345;28;20496;-86
2022/06/06 08:03:31;;;;;;;16.50;9.27;;;;;;;;;;4996665;28;20469;-88
2022/06/06 08:06:05;;;;;;;9.93;8.07;;;;;;;;;;4995785;28;20500;-87
2022/06/06 08:08:41;;;;;;;11.40;8.63;;;;;;;;;;5000700;28;20540;-88
2022/06/06 08:11:13;;;;;;;12.97;8.57;;;;;;;;;;4998913;28;20448;-89
2022/06/06 08:13:47;;;;;;;12.13;9.20;;;;;;;;;;4999462;28;20444;-91
2022/06/06 08:16:19;;;;;;;13.23;9.87;;;;;;;;;;4993770;28;20447;-87
2022/06/06 08:18:55;;;;;;;11.03;9.17;;;;;;;;;;4997646;28;20454;-86
2022/06/06 08:21:23;;;;;;;15.23;9.63;;;;;;;;;;4994765;28;20459;-89
2022/06/06 08:23:51;;;;;;;12.57;10.17;;;;;;;;;;4997308;28;20466;-86
2022/06/06 08:26:20;;;;;;;13.13;9.57;;;;;;;;;;5004091;28;20461;-88
2022/06/06 08:28:48;;;;;;;21.70;10.93;;;;;;;;;;5002487;28;20442;-84
2022/06/06 08:31:14;;;;;;;17.00;10.67;;;;;;;;;;5005412;28;20892;-86
2022/06/06 08:33:41;;;;;;;17.00;11.47;;;;;;;;;;4994975;28;20436;-87
2022/06/06 08:36:13;;;;;;;17.07;12.10;;;;;;;;;;4999884;28;20456;-88
2022/06/06 08:38:45;;;;;;;18.80;13.40;;;;;;;;;;5002188;28;20469;-86
2022/06/06 08:41:26;;;;;;;25.27;13.73;;;;;;;;;;4997669;28;20434;-86
2022/06/06 08:44:10;;;;;;;20.20;13.40;;;;;;;;;;4965746;28;20430;-84
2022/06/06 08:46:54;;;;;;;19.63;13.37;;;;;;;;;;5008223;28;20480;-87
2022/06/06 08:52:15;;;;;;;19.43;14.17;;;;;;;;;;4994165;28;20476;-84
2022/06/06 08:55:04;;;;;;;19.27;14.40;;;;;;;;;;4993737;28;20453;-85
2022/06/06 08:57:41;;;;;;;22.13;14.70;;;;;;;;;;4993679;28;20474;-87
2022/06/06 09:00:13;;;;;;;21.10;16.30;;;;;;;;;;5005905;28;20461;-86
2022/06/06 09:03:06;;;;;;;19.57;13.33;;;;;;;;;;4998404;28;20852;-85
2022/06/06 09:05:59;;;;;;;19.17;14.03;;;;;;;;;;4998420;28;20477;-85
2022/06/06 09:08:44;;;;;;;20.17;15.10;;;;;;;;;;4965134;28;20485;-89
2022/06/06 09:11:35;;;;;;;20.37;14.70;;;;;;;;;;4998966;28;20457;-88
2022/06/06 09:14:16;;;;;;;21.40;14.67;;;;;;;;;;4986203;28;20454;-89
2022/06/06 09:17:02;;;;;;;19.10;13.70;;;;;;;;;;4997380;28;20473;-85
2022/06/06 09:19:39;;;;;;;23.40;15.10;;;;;;;;;;5000548;28;20474;-87
2022/06/06 09:22:18;;;;;;;25.83;15.83;;;;;;;;;;5000293;28;20472;-86
2022/06/06 09:25:12;;;;;;;23.93;15.63;;;;;;;;;;4996366;28;20947;-89
2022/06/06 09:27:58;;;;;;;24.30;15.67;;;;;;;;;;4998829;28;20986;-86
2022/06/06 09:30:39;;;;;;;24.70;15.50;;;;;;;;;;4996676;28;20446;-86
2022/06/06 09:33:23;;;;;;;20.83;15.73;;;;;;;;;;5000915;28;20497;-88
2022/06/06 09:36:05;;;;;;;19.70;13.17;;;;;;;;;;4994951;28;20474;-85
2022/06/06 09:38:41;;;;;;;18.90;12.97;;;;;;;;;;5011870;23;20490;-83
2022/06/06 09:41:21;;;;;;;16.77;12.40;;;;;;;;;;4994024;28;20459;-82
2022/06/06 09:43:54;;;;;;;12.97;10.37;;;;;;;;;;4999210;28;20469;-84
2022/06/06 09:46:34;;;;;;;13.57;10.83;;;;;;;;;;4997156;28;20487;-82
2022/06/06 09:49:10;;;;;;;16.07;9.50;;;;;;;;;;5002443;28;20923;-82
2022/06/06 09:51:42;;;;;;;14.87;10.33;;;;;;;;;;4994399;28;20474;-81
2022/06/06 10:00:11;;;;;;;13.03;8.30;;;;;;;;;;5008115;28;20433;-81
2022/06/06 10:02:56;;;;;;;11.27;8.20;;;;;;;;;;5000432;28;21047;-80
2022/06/06 10:05:53;;;;;;;12.70;9.10;;;;;;;;;;4991860;28;20453;-80
2022/06/06 10:08:38;;;;;;;12.93;10.30;;;;;;;;;;4996864;28;20799;-81
2022/06/06 10:11:20;;;;;;;13.80;9.87;;;;;;;;;;5004801;28;20539;-81
2022/06/06 10:13:58;;;;;;;14.47;10.10;;;;;;;;;;4996972;28;20493;-85
2022/06/06 10:16:33;;;;;;;12.60;9.53;;;;;;;;;;5001589;28;20454;-81
2022/06/06 10:19:06;;;;;;;13.33;9.80;;;;;;;;;;5005647;28;20468;-83
2022/06/06 10:21:44;;;;;;;11.40;9.40;;;;;;;;;;4996125;28;20476;-82
2022/06/06 10:24:21;;;;;;;12.00;10.27;;;;;;;;;;4996179;28;20536;-86
2022/06/06 10:26:56;;;;;;;10.73;9.07;;;;;;;;;;4994270;28;21033;-80
2022/06/06 10:30:10;;;;;;;12.17;9.70;;;;;;;;;;4994087;28;20472;-80
2022/06/06 10:32:25;;;;;;;10.70;8.90;;;;;;;;;;4993468;28;21225;-81
2022/06/06 10:34:58;;;;;;;11.03;9.23;;;;;;;;;;4997716;28;20438;-79
2022/06/06 10:37:44;;;;;;;11.93;8.10;;;;;;;;;;4997355;28;20469;-83
2022/06/06 10:40:31;;;;;;;7.70;6.80;;;;;;;;;;4994331;28;20550;-82
2022/06/06 10:43:12;;;;;;;7.37;6.27;;;;;;;;;;5002340;28;20895;-83
2022/06/06 10:45:39;;;;;;;5.90;5.33;;;;;;;;;;5000518;28;20464;-81
2022/06/06 10:48:15;;;;;;;5.77;4.60;;;;;;;;;;5001650;28;20476;-80
2022/06/06 10:53:37;;;;;;;7.30;5.30;;;;;;;;;;5000538;28;20450;-82
2022/06/06 10:56:16;;;;;;;5.90;5.40;;;;;;;;;;4996166;28;20449;-82
2022/06/06 10:59:12;;;;;;;4.90;4.40;;;;;;;;;;4995631;28;20758;-83
2022/06/06 11:01:52;;;;;;;8.47;4.70;;;;;;;;;;4997211;28;20479;-82
2022/06/06 11:04:44;;;;;;;5.03;4.53;;;;;;;;;;4997841;28;20465;-85
2022/06/06 11:07:25;;;;;;;6.47;4.50;;;;;;;;;;4996808;28;20910;-84
2022/06/06 11:10:07;;;;;;;3.87;3.57;;;;;;;;;;4990660;28;20977;-83
2022/06/06 11:12:54;;;;;;;4.53;4.23;;;;;;;;;;4998101;28;20951;-80
2022/06/06 11:15:28;;;;;;;4.30;3.73;;;;;;;;;;5000342;28;20526;-81
2022/06/06 11:18:09;;;;;;;4.00;3.70;;;;;;;;;;5001309;28;20470;-82
2022/06/06 11:20:53;;;;;;;4.13;3.43;;;;;;;;;;4990021;28;20552;-83
2022/06/06 11:23:21;;;;;;;3.73;3.43;;;;;;;;;;4996226;28;20481;-82
2022/06/06 11:25:54;;;;;;;5.07;4.13;;;;;;;;;;4989650;28;20970;-81
2022/06/06 11:28:36;;;;;;;6.60;3.50;;;;;;;;;;4996514;28;20602;-81
2022/06/06 11:31:11;;;;;;;5.30;4.47;;;;;;;;;;5001214;28;20489;-84
2022/06/06 11:33:48;;;;;;;5.23;3.67;;;;;;;;;;4997442;28;20473;-83
2022/06/06 11:36:27;;;;;;;4.30;3.80;;;;;;;;;;4994401;28;20453;-83
2022/06/06 11:39:11;;;;;;;4.90;4.40;;;;;;;;;;4994254;28;20485;-87
2022/06/06 11:41:56;;;;;;;4.23;3.93;;;;;;;;;;4985300;28;20998;-84
2022/06/06 11:44:35;;;;;;;4.00;3.70;;;;;;;;;;5004299;28;20473;-83
2022/06/06 11:47:22;;;;;;;6.00;4.33;;;;;;;;;;4998482;28;20469;-83
2022/06/06 11:50:19;;;;;;;7.03;4.30;;;;;;;;;;4994568;28;20470;-84
2022/06/06 11:53:09;;;;;;;4.90;4.50;;;;;;;;;;4991668;28;20474;-81
2022/06/06 11:55:42;;;;;;;4.53;4.13;;;;;;;;;;4982886;28;20457;-82
2022/06/06 11:58:23;;;;;;;5.07;4.57;;;;;;;;;;4995690;28;20979;-83
2022/06/06 12:01:01;;;;;;;5.07;4.07;;;;;;;;;;5001632;28;20446;-84
2022/06/06 12:03:42;;;;;;;4.27;3.80;;;;;;;;;;4995355;28;20474;-86
2022/06/06 12:06:22;;;;;;;3.13;2.83;;;;;;;;;;4997436;28;20458;-87
2022/06/06 12:09:12;;;;;;;3.60;3.30;;;;;;;;;;4995462;28;20486;-85
2022/06/06 12:11:53;;;;;;;7.60;4.17;;;;;;;;;;4988905;28;20473;-82
2022/06/06 12:14:27;;;;;;;4.70;4.10;;;;;;;;;;5000063;28;20461;-83
2022/06/06 12:17:01;;;;;;;3.50;3.17;;;;;;;;;;4998777;28;20466;-82
2022/06/06 12:19:47;;;;;;;3.80;3.50;;;;;;;;;;4997897;28;20502;-82
2022/06/06 12:22:29;;;;;;;4.40;3.00;;;;;;;;;;4995862;28;20489;-82
2022/06/06 12:25:16;;;;;;;2.90;2.70;;;;;;;;;;5002609;28;20772;-82
2022/06/06 12:28:00;;;;;;;8.10;3.40;;;;;;;;;;4995710;28;20484;-85
2022/06/06 12:30:33;;;;;;;3.00;2.80;;;;;;;;;;4995221;28;20458;-83
2022/06/06 12:33:02;;;;;;;3.60;3.30;;;;;;;;;;5000945;28;20849;-84
2022/06/06 12:35:35;;;;;;;3.60;3.30;;;;;;;;;;5004948;28;20453;-81
2022/06/06 12:38:08;;;;;;;3.40;3.10;;;;;;;;;;4995751;28;20477;-84
2022/06/06 12:40:41;;;;;;;4.03;2.80;;;;;;;;;;5001715;28;20445;-84
2022/06/06 12:43:12;;;;;;;3.43;3.20;;;;;;;;;;5001317;28;20470;-84
2022/06/06 12:45:42;;;;;;;3.70;3.40;;;;;;;;;;4995400;28;20465;-81
2022/06/06 12:48:26;;;;;;;5.23;3.10;;;;;;;;;;4998951;28;20465;-83
2022/06/06 12:50:57;;;;;;;3.50;3.20;;;;;;;;;;4997232;28;20512;-80
2022/06/06 12:53:40;;;;;;;5.40;2.63;;;;;;;;;;5003472;28;20479;-83
2022/06/06 12:59:09;;;;;;;5.63;2.10;;;;;;;;;;5001366;28;20471;-81
2022/06/06 13:01:41;;;;;;;2.70;2.50;;;;;;;;;;5001068;28;20464;-86
2022/06/06 13:04:19;;;;;;;3.70;2.37;;;;;;;;;;5000731;28;20453;-85
2022/06/06 13:06:50;;;;;;;4.07;2.77;;;;;;;;;;4998827;28;20481;-84
2022/06/06 13:09:24;;;;;;;15.27;2.93;;;;;;;;;;5000278;28;20540;-81
2022/06/06 13:11:53;;;;;;;2.83;2.13;;;;;;;;;;4994485;28;21008;-83
2022/06/06 13:14:29;;;;;;;4.73;1.90;;;;;;;;;;5001786;28;20462;-83
2022/06/06 13:17:03;;;;;;;5.30;2.50;;;;;;;;;;5001440;28;21017;-83
2022/06/06 13:19:45;;;;;;;2.07;1.87;;;;;;;;;;4996899;28;20473;-84
2022/06/06 13:22:27;;;;;;;2.20;2.00;;;;;;;;;;4986573;28;20469;-82
2022/06/06 13:25:01;;;;;;;2.27;2.07;;;;;;;;;;4999079;28;20461;-82
2022/06/06 13:27:29;;;;;;;2.13;1.93;;;;;;;;;;4997376;28;20485;-82
2022/06/06 13:30:17;;;;;;;4.33;2.20;;;;;;;;;;4997649;28;20835;-81
2022/06/06 13:32:46;;;;;;;1.60;1.50;;;;;;;;;;4997966;28;20470;-83
2022/06/06 13:35:18;;;;;;;2.00;1.90;;;;;;;;;;4998902;28;20557;-83
2022/06/06 13:37:52;;;;;;;3.03;1.87;;;;;;;;;;4999220;28;21079;-83
2022/06/06 13:40:26;;;;;;;2.80;1.43;;;;;;;;;;5002748;28;20982;-83
2022/06/06 13:43:05;;;;;;;1.87;1.70;;;;;;;;;;4997608;28;20473;-84
2022/06/06 13:45:35;;;;;;;1.87;1.43;;;;;;;;;;5001530;28;20434;-83
2022/06/06 13:48:16;;;;;;;1.53;1.10;;;;;;;;;;4998779;28;20477;-83
2022/06/06 13:50:49;;;;;;;2.50;1.50;;;;;;;;;;4982268;28;21012;-84
2022/06/06 13:53:24;;;;;;;3.00;1.63;;;;;;;;;;4996028;28;20470;-83
2022/06/06 13:55:53;;;;;;;1.67;1.23;;;;;;;;;;5001055;28;20456;-84
2022/06/06 13:58:26;;;;;;;1.53;1.33;;;;;;;;;;4999726;28;20469;-83
2022/06/06 14:01:05;;;;;;;2.53;1.40;;;;;;;;;;5000278;28;20478;-84
2022/06/06 14:03:37;;;;;;;1.60;1.00;;;;;;;;;;4997557;28;20473;-85
2022/06/06 14:06:11;;;;;;;1.60;1.33;;;;;;;;;;5002557;28;20537;-83
2022/06/06 14:08:47;;;;;;;4.37;1.70;;;;;;;;;;4998077;28;20494;-85
2022/06/06 14:11:19;;;;;;;1.87;1.50;;;;;;;;;;4999692;28;20458;-86
2022/06/06 14:13:47;;;;;;;1.47;1.30;;;;;;;;;;5000790;28;20451;-84
2022/06/06 14:16:24;;;;;;;1.97;1.10;;;;;;;;;;5003426;28;20876;-85
2022/06/06 14:18:52;;;;;;;2.10;1.40;;;;;;;;;;5001988;28;20531;-82
2022/06/06 14:21:23;;;;;;;2.80;1.73;;;;;;;;;;4994751;28;20470;-79
2022/06/06 14:23:49;;;;;;;2.17;1.60;;;;;;;;;;4994347;28;20470;-83
2022/06/06 14:26:20;;;;;;;2.50;1.20;;;;;;;;;;4997332;28;20446;-85
2022/06/06 14:29:01;;;;;;;2.37;1.37;;;;;;;;;;4997054;28;20494;-87
2022/06/06 14:31:36;;;;;;;1.60;1.10;;;;;;;;;;4995986;28;20462;-82
2022/06/06 14:34:16;;;;;;;2.50;1.20;;;;;;;;;;5001426;28;20430;-81
2022/06/06 14:36:43;;;;;;;3.10;1.43;;;;;;;;;;4999293;28;20479;-83
2022/06/06 14:39:20;;;;;;;1.20;1.10;;;;;;;;;;4991760;28;20516;-82
2022/06/06 14:41:47;;;;;;;2.20;1.60;;;;;;;;;;4993728;28;21062;-85
2022/06/06 14:44:14;;;;;;;1.60;1.10;;;;;;;;;;4998012;28;20479;-81
2022/06/06 14:46:46;;;;;;;2.20;1.20;;;;;;;;;;4997984;28;20474;-81
2022/06/06 14:49:22;;;;;;;3.23;1.50;;;;;;;;;;4999756;28;20512;-84
2022/06/06 14:51:49;;;;;;;1.90;1.20;;;;;;;;;;5002425;28;20481;-83
2022/06/06 14:54:17;;;;;;;3.53;1.40;;;;;;;;;;5000667;28;20986;-85
2022/06/06 14:56:45;;;;;;;1.80;1.13;;;;;;;;;;4997737;28;20498;-82
2022/06/06 14:59:14;;;;;;;1.60;1.00;;;;;;;;;;4999215;28;21014;-85
2022/06/06 15:01:41;;;;;;;2.10;0.87;;;;;;;;;;4998335;28;21780;-85
2022/06/06 15:04:19;;;;;;;0.83;0.83;;;;;;;;;;4995732;28;20462;-83
2022/06/06 15:06:48;;;;;;;2.07;1.30;;;;;;;;;;4994525;28;20488;-83
2022/06/06 15:09:18;;;;;;;1.47;1.00;;;;;;;;;;4998209;28;20497;-84
2022/06/06 15:11:45;;;;;;;1.97;1.00;;;;;;;;;;4998227;28;20556;-85
2022/06/06 15:14:13;;;;;;;1.43;1.33;;;;;;;;;;4995138;28;20431;-85
2022/06/06 15:16:39;;;;;;;1.67;1.10;;;;;;;;;;4997777;28;20861;-85
2022/06/06 15:19:07;;;;;;;3.07;1.10;;;;;;;;;;4996459;28;20468;-82
2022/06/06 15:21:37;;;;;;;1.87;1.10;;;;;;;;;;4996041;28;20994;-84
2022/06/06 15:24:05;;;;;;;1.47;1.30;;;;;;;;;;4998265;28;20453;-86
2022/06/06 15:26:35;;;;;;;2.20;1.43;;;;;;;;;;4999273;28;20494;-85
2022/06/06 15:29:06;;;;;;;1.73;1.47;;;;;;;;;;4994795;28;20905;-81
2022/06/06 15:31:42;;;;;;;2.50;1.20;;;;;;;;;;4995750;28;20669;-84
2022/06/06 15:34:17;;;;;;;3.60;1.33;;;;;;;;;;4998955;28;20923;-83
2022/06/06 15:36:46;;;;;;;1.47;1.30;;;;;;;;;;4994961;28;21021;-86
2022/06/06 15:39:24;;;;;;;2.27;1.30;;;;;;;;;;5034528;23;21010;-83
2022/06/06 15:41:52;;;;;;;2.40;1.33;;;;;;;;;;5025613;28;20541;-84